createdAt,value
2022-09-27T00:00:01.231Z,2.25
2022-09-27T00:02:29.201Z,3.50
2022-09-27T00:04:58.476Z,2.47
2022-09-27T00:07:26.345Z,2.80
2022-09-27T00:09:54.132Z,3.38
2022-09-27T00:12:21.907Z,4.10
2022-09-27T00:14:51.079Z,3.35
2022-09-27T00:17:18.855Z,2.50
2022-09-27T00:19:46.637Z,2.60
2022-09-27T00:22:14.416Z,4.15
2022-09-27T00:24:42.268Z,2.42
2022-09-27T00:27:10.071Z,5.00
2022-09-27T00:29:38.121Z,3.33
2022-09-27T00:32:07.319Z,2.83
2022-09-27T00:34:35.177Z,2.58
2022-09-27T00:37:02.971Z,3.95
2022-09-27T00:39:30.854Z,2.22
2022-09-27T00:41:58.641Z,2.45
2022-09-27T00:45:02.158Z,5.78
2022-09-27T00:47:51.825Z,7.32
2022-09-27T00:50:27.487Z,3.42
2022-09-27T00:53:05.364Z,3.63
2022-09-27T00:55:37.495Z,4.05
2022-09-27T00:58:06.353Z,3.20
2022-09-27T01:00:34.712Z,7.25
2022-09-27T01:03:08.378Z,3.00
2022-09-27T01:05:36.560Z,3.05
2022-09-27T01:08:05.354Z,4.13
2022-09-27T01:10:38.549Z,3.53
2022-09-27T01:13:13.919Z,2.95
2022-09-27T01:15:51.194Z,5.55
2022-09-27T01:18:33.399Z,3.97
2022-09-27T01:21:35.420Z,4.05
2022-09-27T01:24:28.251Z,3.22
2022-09-27T01:27:19.533Z,4.03
2022-09-27T01:30:04.080Z,4.78
2022-09-27T01:32:39.896Z,3.97
2022-09-27T01:35:14.688Z,3.53
2022-09-27T01:37:52.345Z,4.25
2022-09-27T01:40:30.000Z,3.40
2022-09-27T01:43:07.782Z,5.07
2022-09-27T01:45:40.097Z,4.80
2022-09-27T01:48:14.823Z,3.30
2022-09-27T01:50:47.107Z,7.13
2022-09-27T01:53:20.701Z,4.70
2022-09-27T01:55:50.695Z,6.03
2022-09-27T01:58:22.039Z,5.60
2022-09-27T02:00:53.960Z,3.63
2022-09-27T02:03:26.248Z,7.57
2022-09-27T02:05:57.731Z,4.25
2022-09-27T02:08:32.787Z,4.45
2022-09-27T02:11:05.307Z,4.30
2022-09-27T02:13:41.534Z,4.47
2022-09-27T02:16:23.772Z,4.38
2022-09-27T02:19:02.377Z,5.18
2022-09-27T02:21:38.959Z,6.57
2022-09-27T02:24:11.166Z,5.00
2022-09-27T02:26:42.725Z,5.57
2022-09-27T02:29:14.840Z,4.97
2022-09-27T02:31:42.738Z,6.78
2022-09-27T02:34:17.591Z,6.10
2022-09-27T02:36:45.582Z,6.07
2022-09-27T02:39:13.500Z,4.72
2022-09-27T02:41:41.265Z,4.80
2022-09-27T02:44:13.238Z,6.50
2022-09-27T02:47:01.017Z,4.88
2022-09-27T02:49:45.399Z,5.65
2022-09-27T02:52:24.862Z,4.68
2022-09-27T02:55:03.231Z,4.60
2022-09-27T02:57:39.686Z,4.95
2022-09-27T03:00:11.013Z,4.40
2022-09-27T03:02:52.834Z,7.88
2022-09-27T03:05:26.384Z,5.47
2022-09-27T03:07:54.288Z,5.72
2022-09-27T03:10:26.777Z,5.50
2022-09-27T03:12:54.719Z,5.85
2022-09-27T03:15:22.492Z,5.57
2022-09-27T03:17:50.243Z,7.50
2022-09-27T03:20:18.166Z,7.45
2022-09-27T03:22:47.288Z,7.25
2022-09-27T03:25:15.254Z,5.88
2022-09-27T03:27:43.065Z,4.55
2022-09-27T03:30:13.400Z,5.97
2022-09-27T03:32:44.178Z,5.65
2022-09-27T03:35:12.368Z,6.30
2022-09-27T03:37:41.058Z,4.88
2022-09-27T03:40:11.573Z,6.53
2022-09-27T03:42:39.817Z,6.13
2022-09-27T03:45:08.618Z,5.95
2022-09-27T03:47:36.336Z,7.32
2022-09-27T03:50:04.156Z,5.78
2022-09-27T03:52:32.273Z,5.03
2022-09-27T03:55:02.364Z,6.75
2022-09-27T03:57:32.032Z,6.85
2022-09-27T04:00:00.462Z,5.22
2022-09-27T04:02:29.108Z,5.22
2022-09-27T04:04:56.966Z,4.97
2022-09-27T04:07:24.744Z,7.40
2022-09-27T04:09:52.545Z,6.72
2022-09-27T04:12:20.347Z,6.90
2022-09-27T04:14:49.516Z,4.93
2022-09-27T04:17:17.294Z,4.70
2022-09-27T04:19:45.085Z,8.23
2022-09-27T04:22:13.637Z,9.77
2022-09-27T04:24:41.409Z,6.05
2022-09-27T04:27:09.214Z,6.43
2022-09-27T04:29:37.200Z,5.85
2022-09-27T04:32:06.383Z,7.43
2022-09-27T04:34:51.727Z,5.18
2022-09-27T04:37:19.467Z,5.30
2022-09-27T04:39:49.098Z,7.43
2022-09-27T04:42:17.180Z,5.55
2022-09-27T04:44:45.136Z,7.40
2022-09-27T04:47:14.874Z,5.70
2022-09-27T04:49:42.678Z,5.80
2022-09-27T04:52:10.520Z,5.70
2022-09-27T04:54:38.279Z,6.95
2022-09-27T04:57:06.065Z,6.68
2022-09-27T04:59:33.889Z,6.68
2022-09-27T05:02:01.639Z,4.85
2022-09-27T05:04:30.767Z,7.70
2022-09-27T05:06:58.566Z,9.70
2022-09-27T05:09:26.355Z,5.85
2022-09-27T05:11:54.097Z,5.00
2022-09-27T05:14:21.892Z,4.85
2022-09-27T05:16:49.772Z,5.38
2022-09-27T05:19:17.768Z,4.22
2022-09-27T05:21:46.893Z,5.13
2022-09-27T05:24:14.663Z,5.15
2022-09-27T05:26:42.845Z,3.22
2022-09-27T05:29:10.726Z,3.80
2022-09-27T05:31:38.746Z,3.03
2022-09-27T05:34:11.943Z,3.15
2022-09-27T05:36:39.737Z,2.60
2022-09-27T05:39:09.016Z,2.85
2022-09-27T05:41:36.943Z,4.07
2022-09-27T05:44:05.843Z,4.45
2022-09-27T05:46:33.671Z,3.42
2022-09-27T05:49:01.681Z,1.92
2022-09-27T05:51:29.503Z,3.40
2022-09-27T05:53:57.535Z,3.47
2022-09-27T05:56:26.739Z,1.83
2022-09-27T05:58:54.523Z,1.48
2022-09-27T06:01:22.371Z,3.33
2022-09-27T06:03:51.401Z,2.35
2022-09-27T06:06:19.276Z,2.88
2022-09-27T06:08:47.076Z,4.00
2022-09-27T06:11:14.917Z,1.70
2022-09-27T06:13:44.170Z,2.13
2022-09-27T06:16:13.128Z,3.08
2022-09-27T06:18:41.025Z,2.20
2022-09-27T06:21:08.783Z,3.03
2022-09-27T06:23:36.623Z,2.13
2022-09-27T06:26:07.934Z,3.10
2022-09-27T06:28:36.072Z,2.90
2022-09-27T06:31:08.262Z,3.72
2022-09-27T06:33:36.705Z,1.77
2022-09-27T06:36:06.587Z,2.03
2022-09-27T06:38:34.506Z,2.30
2022-09-27T06:41:03.741Z,1.63
2022-09-27T06:43:31.849Z,2.22
2022-09-27T06:46:04.685Z,3.05
2022-09-27T06:48:37.515Z,2.25
2022-09-27T06:51:05.718Z,4.20
2022-09-27T06:53:33.597Z,2.35
2022-09-27T06:56:02.241Z,3.35
2022-09-27T06:58:47.922Z,4.30
2022-09-27T07:01:17.617Z,1.90
2022-09-27T07:03:51.330Z,5.65
2022-09-27T07:06:22.748Z,2.15
2022-09-27T07:08:54.091Z,3.33
2022-09-27T07:11:23.463Z,3.20
2022-09-27T07:13:52.381Z,3.20
2022-09-27T07:16:20.348Z,5.45
2022-09-27T07:18:51.218Z,7.53
2022-09-27T07:21:19.323Z,1.85
2022-09-27T07:23:47.520Z,4.32
2022-09-27T07:26:15.391Z,5.45
2022-09-27T07:28:43.413Z,5.30
2022-09-27T07:31:11.428Z,2.72
2022-09-27T07:33:43.149Z,4.85
2022-09-27T07:36:14.022Z,3.65
2022-09-27T07:38:41.937Z,3.65
2022-09-27T07:41:12.502Z,3.42
2022-09-27T07:43:40.418Z,2.13
2022-09-27T07:46:08.321Z,2.40
2022-09-27T07:48:36.327Z,2.25
2022-09-27T07:51:04.351Z,1.98
2022-09-27T07:53:33.601Z,1.80
2022-09-27T07:56:01.438Z,1.50
2022-09-27T07:58:30.588Z,2.10
2022-09-27T08:01:00.579Z,2.30
2022-09-27T08:03:28.580Z,2.03
2022-09-27T08:05:56.406Z,2.72
2022-09-27T08:08:24.518Z,0.50
2022-09-27T08:10:54.610Z,0.63
2022-09-27T08:13:22.498Z,1.77
2022-09-27T08:15:52.439Z,0.40
2022-09-27T08:18:21.947Z,2.13
2022-09-27T08:20:49.795Z,0.50
2022-09-27T08:23:17.852Z,1.75
2022-09-27T08:25:45.884Z,1.95
2022-09-27T08:28:15.165Z,0.95
2022-09-27T08:30:43.067Z,2.50
2022-09-27T08:33:11.170Z,1.00
2022-09-27T08:35:39.770Z,4.45
2022-09-27T08:38:08.016Z,1.95
2022-09-27T08:40:50.477Z,2.75
2022-09-27T08:43:29.073Z,1.83
2022-09-27T08:46:12.253Z,1.73
2022-09-27T08:48:41.128Z,2.80
2022-09-27T08:51:14.854Z,2.78
2022-09-27T08:53:49.282Z,1.25
2022-09-27T08:56:21.262Z,1.50
2022-09-27T08:58:54.764Z,1.95
2022-09-27T09:01:27.862Z,1.55
2022-09-27T09:03:59.369Z,1.45
2022-09-27T09:06:30.202Z,1.55
2022-09-27T09:09:10.299Z,1.98
2022-09-27T09:12:13.479Z,0.85
2022-09-27T09:14:58.238Z,1.38
2022-09-27T09:17:39.285Z,1.60
2022-09-27T09:20:30.027Z,1.80
2022-09-27T09:23:23.837Z,2.17
2022-09-27T09:26:01.882Z,1.90
2022-09-27T09:28:46.706Z,2.45
2022-09-27T09:31:25.296Z,1.05
2022-09-27T09:33:59.295Z,2.33
2022-09-27T09:36:33.805Z,0.90
2022-09-27T09:39:05.559Z,0.90
2022-09-27T09:41:40.707Z,0.70
2022-09-27T09:44:19.314Z,1.67
2022-09-27T09:46:52.537Z,2.25
2022-09-27T09:49:25.499Z,1.10
2022-09-27T09:51:58.276Z,1.23
2022-09-27T09:54:31.579Z,0.88
2022-09-27T09:57:06.320Z,2.38
2022-09-27T09:59:39.357Z,1.80
2022-09-27T10:02:22.974Z,0.90
2022-09-27T10:04:51.076Z,2.47
2022-09-27T10:07:23.260Z,1.65
2022-09-27T10:09:52.012Z,4.60
2022-09-27T10:12:20.081Z,1.05
2022-09-27T10:14:50.476Z,0.90
2022-09-27T10:17:23.202Z,1.30
2022-09-27T10:19:52.689Z,1.63
2022-09-27T10:22:27.766Z,3.42
2022-09-27T10:24:58.586Z,2.75
2022-09-27T10:27:27.470Z,1.90
2022-09-27T10:30:00.193Z,1.98
2022-09-27T10:32:33.320Z,1.52
2022-09-27T10:35:24.065Z,2.47
2022-09-27T10:37:52.723Z,3.60
2022-09-27T10:40:29.560Z,1.33
2022-09-27T10:42:57.601Z,2.67
2022-09-27T10:45:31.327Z,2.47
2022-09-27T10:48:02.461Z,3.25
2022-09-27T10:50:52.958Z,2.85
2022-09-27T10:53:24.130Z,2.10
2022-09-27T10:55:53.570Z,1.77
2022-09-27T10:58:27.484Z,1.40
2022-09-27T11:00:57.925Z,2.05
2022-09-27T11:03:29.072Z,2.63
2022-09-27T11:05:59.790Z,1.83
2022-09-27T11:08:33.004Z,1.90
2022-09-27T11:11:17.390Z,1.40
2022-09-27T11:14:00.120Z,4.35
2022-09-27T11:16:43.088Z,2.25
2022-09-27T11:19:27.991Z,0.95
2022-09-27T11:22:02.806Z,1.48
2022-09-27T11:24:48.631Z,1.23
2022-09-27T11:27:29.688Z,1.63
2022-09-27T11:30:09.710Z,0.85
2022-09-27T11:32:55.166Z,1.60
2022-09-27T11:35:37.651Z,2.35
2022-09-27T11:38:40.852Z,1.75
2022-09-27T11:41:24.155Z,0.77
2022-09-27T11:44:19.758Z,0.82
2022-09-27T11:46:58.508Z,0.93
2022-09-27T11:49:46.989Z,1.08
2022-09-27T11:52:32.137Z,0.75
2022-09-27T11:55:15.677Z,0.73
2022-09-27T11:57:46.817Z,2.78
2022-09-27T12:00:23.983Z,1.23
2022-09-27T12:03:36.560Z,0.77
2022-09-27T12:06:10.890Z,0.70
2022-09-27T12:08:54.882Z,1.23
2022-09-27T12:11:28.082Z,1.52
2022-09-27T12:14:00.703Z,0.75
2022-09-27T12:16:31.469Z,1.58
2022-09-27T12:19:02.048Z,0.90
2022-09-27T12:21:32.685Z,1.65
2022-09-27T12:24:03.524Z,1.20
2022-09-27T12:26:38.632Z,1.25
2022-09-27T12:29:14.052Z,0.80
2022-09-27T12:34:20.074Z,0.75
2022-09-27T12:39:25.145Z,1.50
2022-09-27T12:42:02.037Z,2.83
2022-09-27T12:44:38.671Z,3.13
2022-09-27T12:47:14.911Z,1.10
2022-09-27T12:49:52.010Z,0.70
2022-09-27T12:52:25.637Z,0.85
2022-09-27T12:55:20.067Z,3.97
2022-09-27T12:57:58.386Z,1.75
2022-09-27T13:00:28.097Z,2.15
2022-09-27T13:03:26.337Z,2.78
2022-09-27T13:06:36.097Z,1.13
2022-09-27T13:09:37.640Z,5.05
2022-09-27T13:12:11.635Z,5.32
2022-09-27T13:14:47.260Z,2.13
2022-09-27T13:20:49.416Z,1.13
2022-09-27T13:23:57.958Z,1.33
2022-09-27T13:26:45.015Z,2.17
2022-09-27T13:29:34.500Z,1.42
2022-09-27T13:32:12.482Z,1.88
2022-09-27T13:34:43.203Z,1.42
2022-09-27T13:37:38.477Z,2.17
2022-09-27T13:40:24.184Z,1.15
2022-09-27T13:43:18.180Z,1.00
2022-09-27T13:45:55.121Z,3.05
2022-09-27T13:48:28.267Z,2.25
2022-09-27T13:51:02.482Z,2.40
2022-09-27T13:53:35.359Z,2.17
2022-09-27T13:56:04.021Z,1.38
2022-09-27T13:58:38.078Z,1.30
2022-09-27T14:01:18.145Z,2.97
2022-09-27T14:03:59.473Z,2.00
2022-09-27T14:06:32.576Z,2.92
2022-09-27T14:09:05.674Z,1.15
2022-09-27T14:11:37.926Z,2.17
2022-09-27T14:14:08.620Z,1.85
2022-09-27T14:16:43.407Z,1.45
2022-09-27T14:19:17.715Z,0.60
2022-09-27T14:21:47.538Z,2.13
2022-09-27T14:24:24.018Z,0.95
2022-09-27T14:27:04.126Z,0.52
2022-09-27T14:29:34.136Z,0.47
2022-09-27T14:32:09.393Z,0.77
2022-09-27T14:34:37.166Z,1.48
2022-09-27T14:37:22.418Z,0.73
2022-09-27T14:39:55.729Z,1.48
2022-09-27T14:42:26.520Z,4.05
2022-09-27T14:45:04.196Z,1.20
2022-09-27T14:47:34.169Z,1.38
2022-09-27T14:50:05.696Z,1.23
2022-09-27T14:52:36.481Z,2.38
2022-09-27T14:55:07.944Z,1.13
2022-09-27T14:57:37.376Z,1.05
2022-09-27T15:00:18.360Z,1.85
2022-09-27T15:02:48.868Z,1.88
2022-09-27T15:05:19.789Z,1.70
2022-09-27T15:07:49.689Z,1.55
2022-09-27T15:10:19.308Z,0.95
2022-09-27T15:12:49.241Z,1.55
2022-09-27T15:15:22.930Z,7.07
2022-09-27T15:17:52.016Z,1.33
2022-09-27T15:20:24.570Z,2.08
2022-09-27T15:22:52.970Z,3.17
2022-09-27T15:25:32.130Z,3.08
2022-09-27T15:28:02.896Z,2.97
2022-09-27T15:30:36.354Z,2.55
2022-09-27T15:33:06.696Z,2.47
2022-09-27T15:35:36.871Z,1.45
2022-09-27T15:38:24.833Z,1.55
2022-09-27T15:41:08.129Z,2.63
2022-09-27T15:43:45.535Z,1.90
2022-09-27T15:46:36.101Z,3.20
2022-09-27T15:49:30.827Z,2.45
2022-09-27T15:52:00.158Z,2.45
2022-09-27T15:54:30.227Z,1.35
2022-09-27T15:57:04.283Z,3.35
2022-09-27T15:59:34.948Z,3.42
2022-09-27T16:02:08.139Z,1.10
2022-09-27T16:04:37.987Z,3.15
2022-09-27T16:07:09.871Z,2.25
2022-09-27T16:09:38.754Z,2.85
2022-09-27T16:12:06.533Z,3.10
2022-09-27T16:14:34.349Z,2.08
2022-09-27T16:17:02.008Z,3.80
2022-09-27T16:19:29.694Z,3.13
2022-09-27T16:22:03.299Z,1.50
2022-09-27T16:24:32.044Z,3.60
2022-09-27T16:27:00.172Z,2.17
2022-09-27T16:29:27.933Z,2.13
2022-09-27T16:31:55.585Z,2.08
2022-09-27T16:34:23.382Z,1.10
2022-09-27T16:36:51.228Z,1.00
2022-09-27T16:39:20.264Z,1.55
2022-09-27T16:41:48.277Z,3.22
2022-09-27T16:44:17.694Z,1.30
2022-09-27T16:46:47.219Z,2.78
2022-09-27T16:49:28.880Z,3.15
2022-09-27T16:52:02.413Z,1.20
2022-09-27T16:54:31.679Z,2.17
2022-09-27T16:57:00.442Z,1.40
2022-09-27T16:59:28.539Z,2.08
2022-09-27T17:01:57.883Z,3.60
2022-09-27T17:04:27.476Z,4.43
2022-09-27T17:06:55.755Z,1.65
2022-09-27T17:09:23.810Z,1.25
2022-09-27T17:11:52.935Z,2.25
2022-09-27T17:14:20.900Z,1.25
2022-09-27T17:16:49.560Z,1.90
2022-09-27T17:19:18.886Z,3.72
2022-09-27T17:21:46.923Z,2.10
2022-09-27T17:24:14.775Z,1.45
2022-09-27T17:26:43.081Z,2.40
2022-09-27T17:29:13.269Z,2.47
2022-09-27T17:31:42.371Z,3.42
2022-09-27T17:34:12.807Z,1.77
2022-09-27T17:36:42.325Z,1.50
2022-09-27T17:39:13.409Z,4.20
2022-09-27T17:41:41.063Z,1.85
2022-09-27T17:44:12.507Z,1.75
2022-09-27T17:46:42.790Z,2.42
2022-09-27T17:49:28.890Z,4.53
2022-09-27T17:51:56.633Z,1.50
2022-09-27T17:54:27.815Z,2.25
2022-09-27T17:56:57.389Z,1.75
2022-09-27T17:59:25.985Z,2.28
2022-09-27T18:01:55.484Z,2.67
2022-09-27T18:04:23.375Z,1.50
2022-09-27T18:06:51.196Z,2.03
2022-09-27T18:09:19.699Z,2.13
2022-09-27T18:11:48.264Z,2.53
2022-09-27T18:14:16.125Z,3.28
2022-09-27T18:16:44.196Z,4.57
2022-09-27T18:19:16.061Z,2.55
2022-09-27T18:21:43.835Z,2.00
2022-09-27T18:24:11.966Z,1.90
2022-09-27T18:26:40.595Z,1.98
2022-09-27T18:29:10.862Z,3.17
2022-09-27T18:31:39.770Z,3.22
2022-09-27T18:34:07.984Z,1.67
2022-09-27T18:36:37.583Z,1.50
2022-09-27T18:39:09.252Z,5.88
2022-09-27T18:41:37.331Z,5.28
2022-09-27T18:44:06.708Z,2.30
2022-09-27T18:46:37.247Z,2.08
2022-09-27T18:49:08.059Z,1.05
2022-09-27T18:51:39.957Z,2.53
2022-09-27T18:54:10.116Z,1.75
2022-09-27T18:56:39.560Z,1.40
2022-09-27T18:59:09.321Z,1.20
2022-09-27T19:01:39.523Z,1.15
2022-09-27T19:04:08.140Z,1.05
2022-09-27T19:06:38.640Z,1.25
2022-09-27T19:09:07.689Z,0.98
2022-09-27T19:11:36.012Z,0.85
2022-09-27T19:14:04.220Z,1.35
2022-09-27T19:16:31.988Z,1.05
2022-09-27T19:18:59.894Z,1.15
2022-09-27T19:21:29.815Z,2.25
2022-09-27T19:23:59.105Z,0.90
2022-09-27T19:26:28.221Z,0.93
2022-09-27T19:28:56.513Z,1.63
2022-09-27T19:31:26.279Z,0.98
2022-09-27T19:33:59.647Z,2.25
2022-09-27T19:36:28.101Z,1.65
2022-09-27T19:38:58.541Z,1.17
2022-09-27T19:41:28.371Z,2.10
2022-09-27T19:43:57.523Z,1.98
2022-09-27T19:46:26.632Z,2.63
2022-09-27T19:48:55.233Z,1.65
2022-09-27T19:51:25.119Z,1.27
2022-09-27T19:53:54.131Z,1.25
2022-09-27T19:56:22.612Z,2.15
2022-09-27T19:58:52.295Z,1.30
2022-09-27T20:01:22.628Z,1.40
2022-09-27T20:03:52.330Z,3.97
2022-09-27T20:06:21.703Z,2.63
2022-09-27T20:08:50.106Z,1.45
2022-09-27T20:11:19.416Z,1.73
2022-09-27T20:13:48.049Z,1.80
2022-09-27T20:16:19.552Z,1.08
2022-09-27T20:18:49.649Z,1.10
2022-09-27T20:21:19.467Z,2.45
2022-09-27T20:23:49.948Z,1.00
2022-09-27T20:26:20.070Z,1.95
2022-09-27T20:28:49.569Z,1.20
2022-09-27T20:31:20.045Z,0.80
2022-09-27T20:33:50.639Z,1.70
2022-09-27T20:36:20.430Z,1.38
2022-09-27T20:38:50.104Z,2.42
2022-09-27T20:41:20.207Z,0.80
2022-09-27T20:43:48.842Z,1.52
2022-09-27T20:46:19.147Z,1.50
2022-09-27T20:48:51.154Z,1.33
2022-09-27T20:51:19.539Z,1.67
2022-09-27T20:53:49.110Z,1.50
2022-09-27T20:56:18.431Z,3.22
2022-09-27T20:58:46.833Z,0.85
2022-09-27T21:01:15.339Z,1.48
2022-09-27T21:03:44.598Z,3.55
2022-09-27T21:06:13.915Z,0.95
2022-09-27T21:08:41.943Z,1.08
2022-09-27T21:11:11.696Z,1.17
2022-09-27T21:13:40.717Z,0.98
2022-09-27T21:16:10.521Z,0.82
2022-09-27T21:18:38.598Z,0.98
2022-09-27T21:21:09.775Z,1.45
2022-09-27T21:23:44.121Z,4.65
2022-09-27T21:26:14.783Z,1.05
2022-09-27T21:28:44.802Z,1.13
2022-09-27T21:31:16.566Z,0.90
2022-09-27T21:33:48.847Z,0.85
2022-09-27T21:36:18.225Z,0.88
2022-09-27T21:38:45.948Z,0.60
2022-09-27T21:41:16.016Z,0.70
2022-09-27T21:43:45.227Z,0.80
2022-09-27T21:46:14.773Z,2.25
2022-09-27T21:48:44.283Z,2.65
2022-09-27T21:51:13.829Z,1.75
2022-09-27T21:53:45.081Z,1.08
2022-09-27T21:56:13.223Z,1.38
2022-09-27T21:58:42.264Z,0.93
2022-09-27T22:01:12.600Z,1.67
2022-09-27T22:03:42.678Z,0.88
2022-09-27T22:06:11.905Z,0.80
2022-09-27T22:08:39.734Z,1.00
2022-09-27T22:11:09.942Z,0.70
2022-09-27T22:13:37.685Z,0.70
2022-09-27T22:16:07.129Z,0.90
2022-09-27T22:18:37.377Z,0.93
2022-09-27T22:21:06.940Z,1.45
2022-09-27T22:23:34.999Z,1.05
2022-09-27T22:26:13.889Z,0.80
2022-09-27T22:28:41.667Z,0.60
2022-09-27T22:31:11.514Z,1.38
2022-09-27T22:33:39.623Z,2.35
2022-09-27T22:36:07.817Z,1.42
2022-09-27T22:38:35.808Z,1.20
2022-09-27T22:41:04.296Z,1.75
2022-09-27T22:43:33.490Z,1.48
2022-09-27T22:46:01.432Z,1.60
2022-09-27T22:48:30.708Z,2.75
2022-09-27T22:50:59.659Z,1.33
2022-09-27T22:53:29.534Z,1.35
2022-09-27T22:56:03.113Z,1.20
2022-09-27T22:58:33.709Z,1.50
2022-09-27T23:08:07.610Z,1.45
2022-09-27T23:10:36.005Z,1.13
2022-09-27T23:13:03.744Z,1.88
2022-09-27T23:15:32.868Z,1.58
2022-09-27T23:18:00.960Z,0.77
2022-09-27T23:20:29.710Z,1.15
2022-09-27T23:22:59.183Z,1.13
2022-09-27T23:25:27.115Z,1.60
2022-09-27T23:27:54.956Z,1.27
2022-09-27T23:30:28.938Z,0.80
2022-09-27T23:32:56.731Z,0.80
2022-09-27T23:35:26.648Z,1.50
2022-09-27T23:37:57.746Z,1.20
2022-09-27T23:40:26.887Z,1.33
2022-09-27T23:42:54.588Z,1.67
2022-09-27T23:45:22.255Z,0.90
2022-09-27T23:47:49.957Z,1.55
2022-09-27T23:50:17.806Z,0.93
2022-09-27T23:52:45.466Z,1.92
2022-09-27T23:55:13.174Z,1.80
2022-09-27T23:57:42.222Z,0.90
